sensor_id;sensor_type;location;lat;lon;timestamp;pressure;altitude;pressure_sealevel;temperature;humidity
18678;BME280;9469;51.114;13.914;2023-04-05T00:00:19;99528.31;;;2.71;87.15
18678;BME280;9469;51.114;13.914;2023-04-05T00:05:25;99525.59;;;2.66;87.09
18678;BME280;9469;51.114;13.914;2023-04-05T00:10:38;99534.03;;;2.57;87.29
18678;BME280;9469;51.114;13.914;2023-04-05T00:15:43;99520.78;;;2.75;87.12
18678;BME280;9469;51.114;13.914;2023-04-05T00:20:49;99528.69;;;2.75;86.70
18678;BME280;9469;51.114;13.914;2023-04-05T00:25:57;99513.47;;;2.65;87.58
18678;BME280;9469;51.114;13.914;2023-04-05T00:31:03;99513.72;;;2.64;86.04
18678;BME280;9469;51.114;13.914;2023-04-05T00:36:09;99513.03;;;2.45;87.81
18678;BME280;9469;51.114;13.914;2023-04-05T00:41:17;99500.34;;;2.54;88.67
18678;BME280;9469;51.114;13.914;2023-04-05T00:46:22;99504.91;;;2.93;87.53
18678;BME280;9469;51.114;13.914;2023-04-05T00:51:29;99488.88;;;3.06;85.42
18678;BME280;9469;51.114;13.914;2023-04-05T00:56:38;99485.34;;;3.01;84.70
18678;BME280;9469;51.114;13.914;2023-04-05T01:01:43;99480.75;;;3.47;83.67
18678;BME280;9469;51.114;13.914;2023-04-05T01:07:03;99491.72;;;3.16;87.02
18678;BME280;9469;51.114;13.914;2023-04-05T01:12:16;99482.25;;;2.92;88.89
18678;BME280;9469;51.114;13.914;2023-04-05T01:17:26;99480.28;;;3.11;87.98
18678;BME280;9469;51.114;13.914;2023-04-05T01:23:05;99493.13;;;3.35;86.03
18678;BME280;9469;51.114;13.914;2023-04-05T01:28:39;99478.28;;;3.29;85.97
18678;BME280;9469;51.114;13.914;2023-04-05T01:33:57;99479.88;;;3.30;88.06
18678;BME280;9469;51.114;13.914;2023-04-05T01:39:04;99464.59;;;3.27;89.16
18678;BME280;9469;51.114;13.914;2023-04-05T01:44:13;99467.72;;;3.01;88.44
18678;BME280;9469;51.114;13.914;2023-04-05T01:49:22;99449.94;;;3.31;86.76
18678;BME280;9469;51.114;13.914;2023-04-05T01:54:28;99458.47;;;3.38;85.94
18678;BME280;9469;51.114;13.914;2023-04-05T01:59:33;99453.31;;;3.43;83.32
18678;BME280;9469;51.114;13.914;2023-04-05T02:04:41;99454.13;;;3.04;86.35
18678;BME280;9469;51.114;13.914;2023-04-05T02:09:49;99456.19;;;3.02;88.66
18678;BME280;9469;51.114;13.914;2023-04-05T02:14:54;99441.00;;;3.04;86.02
18678;BME280;9469;51.114;13.914;2023-04-05T02:20:04;99450.53;;;3.22;82.99
18678;BME280;9469;51.114;13.914;2023-04-05T02:25:10;99440.44;;;3.02;81.29
18678;BME280;9469;51.114;13.914;2023-04-05T02:30:16;99452.44;;;2.98;82.67
18678;BME280;9469;51.114;13.914;2023-04-05T02:35:24;99437.50;;;3.55;80.49
18678;BME280;9469;51.114;13.914;2023-04-05T02:40:29;99445.44;;;3.60;79.68
18678;BME280;9469;51.114;13.914;2023-04-05T02:45:35;99445.75;;;3.47;77.71
18678;BME280;9469;51.114;13.914;2023-04-05T02:50:46;99434.16;;;3.59;77.72
18678;BME280;9469;51.114;13.914;2023-04-05T02:55:52;99445.78;;;3.63;79.64
18678;BME280;9469;51.114;13.914;2023-04-05T03:00:58;99429.81;;;3.53;80.34
18678;BME280;9469;51.114;13.914;2023-04-05T03:06:11;99428.50;;;3.68;79.04
18678;BME280;9469;51.114;13.914;2023-04-05T03:11:23;99429.41;;;3.45;79.85
18678;BME280;9469;51.114;13.914;2023-04-05T03:16:34;99431.09;;;3.51;79.59
18678;BME280;9469;51.114;13.914;2023-04-05T03:21:52;99422.31;;;3.62;79.32
18678;BME280;9469;51.114;13.914;2023-04-05T03:27:06;99437.94;;;3.52;79.12
18678;BME280;9469;51.114;13.914;2023-04-05T03:32:29;99419.56;;;3.69;78.11
18678;BME280;9469;51.114;13.914;2023-04-05T03:37:46;99426.66;;;3.85;76.49
18678;BME280;9469;51.114;13.914;2023-04-05T03:42:53;99428.09;;;3.59;76.11
18678;BME280;9469;51.114;13.914;2023-04-05T03:47:58;99420.84;;;3.66;76.79
18678;BME280;9469;51.114;13.914;2023-04-05T03:53:06;99433.88;;;3.44;77.24
18678;BME280;9469;51.114;13.914;2023-04-05T03:58:14;99424.38;;;3.15;79.29
18678;BME280;9469;51.114;13.914;2023-04-05T04:03:20;99421.66;;;3.38;79.62
18678;BME280;9469;51.114;13.914;2023-04-05T04:08:31;99426.63;;;3.51;78.54
18678;BME280;9469;51.114;13.914;2023-04-05T04:13:38;99430.78;;;3.47;78.91
18678;BME280;9469;51.114;13.914;2023-04-05T04:18:51;99426.06;;;3.49;78.94
18678;BME280;9469;51.114;13.914;2023-04-05T04:24:11;99430.31;;;3.22;80.27
18678;BME280;9469;51.114;13.914;2023-04-05T04:29:35;99421.47;;;3.28;80.66
18678;BME280;9469;51.114;13.914;2023-04-05T04:35:09;99426.94;;;3.38;80.14
18678;BME280;9469;51.114;13.914;2023-04-05T04:40:37;99425.75;;;3.18;80.21
18678;BME280;9469;51.114;13.914;2023-04-05T04:45:58;99420.19;;;3.14;80.49
18678;BME280;9469;51.114;13.914;2023-04-05T04:51:28;99422.88;;;2.91;81.98
18678;BME280;9469;51.114;13.914;2023-04-05T04:56:36;99425.66;;;5.22;73.22
18678;BME280;9469;51.114;13.914;2023-04-05T05:01:44;99410.69;;;7.37;65.98
18678;BME280;9469;51.114;13.914;2023-04-05T05:06:54;99412.56;;;8.47;61.63
18678;BME280;9469;51.114;13.914;2023-04-05T05:12:05;99405.44;;;9.89;57.66
18678;BME280;9469;51.114;13.914;2023-04-05T05:17:13;99400.50;;;10.87;55.68
18678;BME280;9469;51.114;13.914;2023-04-05T05:22:19;99418.91;;;9.64;56.87
18678;BME280;9469;51.114;13.914;2023-04-05T05:27:27;99404.47;;;10.42;55.61
18678;BME280;9469;51.114;13.914;2023-04-05T05:32:32;99401.22;;;10.45;56.29
18678;BME280;9469;51.114;13.914;2023-04-05T05:37:38;99397.38;;;12.10;53.05
18678;BME280;9469;51.114;13.914;2023-04-05T05:42:46;99404.47;;;10.90;54.56
18678;BME280;9469;51.114;13.914;2023-04-05T05:47:52;99402.50;;;14.54;49.31
18678;BME280;9469;51.114;13.914;2023-04-05T05:53:00;99406.00;;;14.10;50.32
18678;BME280;9469;51.114;13.914;2023-04-05T05:58:10;99397.75;;;15.16;48.93
18678;BME280;9469;51.114;13.914;2023-04-05T06:03:16;99391.00;;;16.12;47.33
18678;BME280;9469;51.114;13.914;2023-04-05T06:08:24;99392.00;;;15.82;47.25
18678;BME280;9469;51.114;13.914;2023-04-05T06:13:32;99389.75;;;16.10;46.42
18678;BME280;9469;51.114;13.914;2023-04-05T06:18:39;99395.66;;;17.08;44.71
18678;BME280;9469;51.114;13.914;2023-04-05T06:23:46;99404.06;;;14.63;47.79
18678;BME280;9469;51.114;13.914;2023-04-05T06:28:55;99405.09;;;16.85;45.27
18678;BME280;9469;51.114;13.914;2023-04-05T06:34:00;99400.72;;;17.09;44.90
18678;BME280;9469;51.114;13.914;2023-04-05T06:39:07;99401.47;;;17.18;44.40
18678;BME280;9469;51.114;13.914;2023-04-05T06:44:20;99394.75;;;17.04;44.65
18678;BME280;9469;51.114;13.914;2023-04-05T06:49:25;99386.97;;;15.55;46.28
18678;BME280;9469;51.114;13.914;2023-04-05T06:54:31;99390.75;;;14.80;47.89
18678;BME280;9469;51.114;13.914;2023-04-05T06:59:39;99389.84;;;16.77;45.94
18678;BME280;9469;51.114;13.914;2023-04-05T07:04:45;99382.03;;;17.13;44.82
18678;BME280;9469;51.114;13.914;2023-04-05T07:09:51;99394.38;;;16.38;45.83
18678;BME280;9469;51.114;13.914;2023-04-05T07:15:04;99398.06;;;15.05;47.89
18678;BME280;9469;51.114;13.914;2023-04-05T07:20:10;99383.25;;;17.65;44.76
18678;BME280;9469;51.114;13.914;2023-04-05T07:25:19;99396.78;;;16.31;46.26
18678;BME280;9469;51.114;13.914;2023-04-05T07:30:31;99402.44;;;14.93;47.14
18678;BME280;9469;51.114;13.914;2023-04-05T07:35:37;99382.19;;;15.86;47.44
18678;BME280;9469;51.114;13.914;2023-04-05T07:40:42;99372.28;;;16.79;43.67
18678;BME280;9469;51.114;13.914;2023-04-05T07:45:50;99377.78;;;15.56;46.41
18678;BME280;9469;51.114;13.914;2023-04-05T07:50:56;99383.44;;;14.55;47.51
18678;BME280;9469;51.114;13.914;2023-04-05T07:56:03;99380.84;;;16.26;45.12
18678;BME280;9469;51.114;13.914;2023-04-05T08:01:11;99382.69;;;17.10;44.69
18678;BME280;9469;51.114;13.914;2023-04-05T08:06:18;99379.31;;;14.97;47.38
18678;BME280;9469;51.114;13.914;2023-04-05T08:11:24;99355.91;;;17.75;42.90
18678;BME280;9469;51.114;13.914;2023-04-05T08:16:34;99367.22;;;15.76;44.15
18678;BME280;9469;51.114;13.914;2023-04-05T08:21:41;99370.00;;;16.14;43.79
18678;BME280;9469;51.114;13.914;2023-04-05T08:26:48;99369.53;;;16.59;44.38
18678;BME280;9469;51.114;13.914;2023-04-05T08:31:57;99376.03;;;15.43;46.36
18678;BME280;9469;51.114;13.914;2023-04-05T08:37:03;99360.72;;;14.44;47.43
18678;BME280;9469;51.114;13.914;2023-04-05T08:42:15;99373.31;;;13.68;47.29
18678;BME280;9469;51.114;13.914;2023-04-05T08:47:24;99364.97;;;15.96;44.10
18678;BME280;9469;51.114;13.914;2023-04-05T08:52:33;99359.78;;;15.82;44.67
18678;BME280;9469;51.114;13.914;2023-04-05T08:57:43;99367.75;;;14.79;45.50
18678;BME280;9469;51.114;13.914;2023-04-05T09:02:55;99368.19;;;14.64;45.71
18678;BME280;9469;51.114;13.914;2023-04-05T09:08:05;99365.72;;;14.76;45.70
18678;BME280;9469;51.114;13.914;2023-04-05T09:13:10;99369.56;;;10.91;51.61
18678;BME280;9469;51.114;13.914;2023-04-05T09:18:21;99374.34;;;10.47;51.69
18678;BME280;9469;51.114;13.914;2023-04-05T09:23:28;99377.72;;;10.52;52.31
18678;BME280;9469;51.114;13.914;2023-04-05T09:28:43;99362.81;;;11.73;49.19
18678;BME280;9469;51.114;13.914;2023-04-05T09:33:51;99365.94;;;10.58;50.55
18678;BME280;9469;51.114;13.914;2023-04-05T09:39:06;99369.25;;;10.93;50.48
18678;BME280;9469;51.114;13.914;2023-04-05T09:44:11;99356.66;;;11.91;49.98
18678;BME280;9469;51.114;13.914;2023-04-05T09:49:30;99354.25;;;10.83;49.80
18678;BME280;9469;51.114;13.914;2023-04-05T09:54:40;99362.13;;;10.69;48.57
18678;BME280;9469;51.114;13.914;2023-04-05T09:59:46;99350.63;;;11.67;48.19
18678;BME280;9469;51.114;13.914;2023-04-05T10:05:04;99352.72;;;13.11;47.43
18678;BME280;9469;51.114;13.914;2023-04-05T10:10:13;99359.66;;;10.73;48.03
18678;BME280;9469;51.114;13.914;2023-04-05T10:15:18;99345.09;;;11.26;47.20
18678;BME280;9469;51.114;13.914;2023-04-05T10:20:27;99336.41;;;12.04;47.65
18678;BME280;9469;51.114;13.914;2023-04-05T10:25:48;99348.13;;;11.01;49.05
18678;BME280;9469;51.114;13.914;2023-04-05T10:31:09;99344.22;;;10.75;49.09
18678;BME280;9469;51.114;13.914;2023-04-05T10:36:40;99339.72;;;10.28;52.56
18678;BME280;9469;51.114;13.914;2023-04-05T10:41:54;99357.19;;;8.94;53.58
18678;BME280;9469;51.114;13.914;2023-04-05T10:47:03;99340.78;;;9.98;53.31
18678;BME280;9469;51.114;13.914;2023-04-05T10:52:15;99346.72;;;10.66;52.20
18678;BME280;9469;51.114;13.914;2023-04-05T10:57:23;99339.19;;;10.73;50.46
18678;BME280;9469;51.114;13.914;2023-04-05T11:02:29;99337.28;;;11.35;49.54
18678;BME280;9469;51.114;13.914;2023-04-05T11:07:44;99323.72;;;11.13;48.87
18678;BME280;9469;51.114;13.914;2023-04-05T11:13:06;99335.69;;;10.31;48.56
18678;BME280;9469;51.114;13.914;2023-04-05T11:18:20;99331.75;;;10.70;49.83
18678;BME280;9469;51.114;13.914;2023-04-05T11:23:28;99325.53;;;10.56;51.59
18678;BME280;9469;51.114;13.914;2023-04-05T11:28:35;99322.78;;;11.41;50.22
18678;BME280;9469;51.114;13.914;2023-04-05T11:33:57;99317.03;;;10.78;49.67
18678;BME280;9469;51.114;13.914;2023-04-05T11:39:27;99324.50;;;10.05;51.49
18678;BME280;9469;51.114;13.914;2023-04-05T11:44:44;99326.69;;;9.35;51.32
18678;BME280;9469;51.114;13.914;2023-04-05T11:49:51;99324.78;;;10.56;50.02
18678;BME280;9469;51.114;13.914;2023-04-05T11:55:13;99323.38;;;10.11;49.82
18678;BME280;9469;51.114;13.914;2023-04-05T12:00:21;99322.41;;;8.42;51.23
18678;BME280;9469;51.114;13.914;2023-04-05T12:05:47;99311.38;;;9.90;50.71
18678;BME280;9469;51.114;13.914;2023-04-05T12:10:59;99306.41;;;10.07;50.12
18678;BME280;9469;51.114;13.914;2023-04-05T12:16:07;99310.91;;;9.83;51.09
18678;BME280;9469;51.114;13.914;2023-04-05T12:21:13;99300.34;;;9.73;52.48
18678;BME280;9469;51.114;13.914;2023-04-05T12:26:24;99314.34;;;9.83;52.49
18678;BME280;9469;51.114;13.914;2023-04-05T12:31:41;99297.38;;;10.55;50.49
18678;BME280;9469;51.114;13.914;2023-04-05T12:36:53;99301.63;;;9.80;51.75
18678;BME280;9469;51.114;13.914;2023-04-05T12:42:03;99308.31;;;9.05;52.29
18678;BME280;9469;51.114;13.914;2023-04-05T12:47:11;99287.25;;;10.34;50.42
18678;BME280;9469;51.114;13.914;2023-04-05T12:52:21;99289.38;;;9.17;51.64
18678;BME280;9469;51.114;13.914;2023-04-05T12:57:40;99299.59;;;9.96;51.11
18678;BME280;9469;51.114;13.914;2023-04-05T13:02:50;99295.19;;;9.24;51.33
18678;BME280;9469;51.114;13.914;2023-04-05T13:07:59;99310.69;;;8.53;53.65
18678;BME280;9469;51.114;13.914;2023-04-05T13:13:08;99291.84;;;8.59;53.42
18678;BME280;9469;51.114;13.914;2023-04-05T13:18:14;99293.59;;;9.85;52.96
18678;BME280;9469;51.114;13.914;2023-04-05T13:23:20;99291.81;;;9.13;54.44
18678;BME280;9469;51.114;13.914;2023-04-05T13:28:30;99282.28;;;9.41;54.78
18678;BME280;9469;51.114;13.914;2023-04-05T13:33:36;99294.25;;;8.56;54.86
18678;BME280;9469;51.114;13.914;2023-04-05T13:38:46;99275.22;;;9.31;53.59
18678;BME280;9469;51.114;13.914;2023-04-05T13:44:00;99283.38;;;9.06;54.45
18678;BME280;9469;51.114;13.914;2023-04-05T13:49:08;99271.41;;;9.43;53.36
18678;BME280;9469;51.114;13.914;2023-04-05T13:54:13;99268.91;;;9.56;52.79
18678;BME280;9469;51.114;13.914;2023-04-05T13:59:24;99253.63;;;9.72;53.12
18678;BME280;9469;51.114;13.914;2023-04-05T14:04:30;99259.97;;;9.13;53.66
18678;BME280;9469;51.114;13.914;2023-04-05T14:09:38;99252.34;;;9.35;53.23
18678;BME280;9469;51.114;13.914;2023-04-05T14:14:49;99251.78;;;9.05;53.86
18678;BME280;9469;51.114;13.914;2023-04-05T14:19:54;99253.66;;;9.67;53.50
18678;BME280;9469;51.114;13.914;2023-04-05T14:25:03;99239.13;;;8.97;54.04
18678;BME280;9469;51.114;13.914;2023-04-05T14:30:13;99235.94;;;9.86;53.29
18678;BME280;9469;51.114;13.914;2023-04-05T14:35:23;99242.38;;;9.80;54.18
18678;BME280;9469;51.114;13.914;2023-04-05T14:40:52;99239.94;;;9.55;53.07
18678;BME280;9469;51.114;13.914;2023-04-05T14:46:12;99233.22;;;9.91;53.48
18678;BME280;9469;51.114;13.914;2023-04-05T14:51:17;99228.47;;;10.35;52.76
18678;BME280;9469;51.114;13.914;2023-04-05T14:56:23;99240.13;;;10.16;51.98
18678;BME280;9469;51.114;13.914;2023-04-05T15:01:31;99231.00;;;9.17;53.62
18678;BME280;9469;51.114;13.914;2023-04-05T15:06:39;99225.69;;;9.46;52.62
18678;BME280;9469;51.114;13.914;2023-04-05T15:11:44;99219.16;;;9.38;51.63
18678;BME280;9469;51.114;13.914;2023-04-05T15:16:52;99222.66;;;9.00;53.30
18678;BME280;9469;51.114;13.914;2023-04-05T15:21:58;99208.41;;;9.77;51.76
18678;BME280;9469;51.114;13.914;2023-04-05T15:27:05;99213.59;;;9.34;51.88
18678;BME280;9469;51.114;13.914;2023-04-05T15:32:13;99205.63;;;9.87;52.46
18678;BME280;9469;51.114;13.914;2023-04-05T15:37:18;99218.94;;;8.96;53.40
18678;BME280;9469;51.114;13.914;2023-04-05T15:42:23;99218.28;;;8.21;57.27
18678;BME280;9469;51.114;13.914;2023-04-05T15:47:32;99234.09;;;7.77;58.26
18678;BME280;9469;51.114;13.914;2023-04-05T15:52:37;99219.09;;;8.17;58.48
18678;BME280;9469;51.114;13.914;2023-04-05T15:57:43;99227.47;;;7.70;58.61
18678;BME280;9469;51.114;13.914;2023-04-05T16:02:53;99221.69;;;7.48;58.77
18678;BME280;9469;51.114;13.914;2023-04-05T16:08:01;99230.94;;;7.60;58.63
18678;BME280;9469;51.114;13.914;2023-04-05T16:13:07;99224.34;;;7.53;58.35
18678;BME280;9469;51.114;13.914;2023-04-05T16:18:15;99230.94;;;7.60;58.63
18678;BME280;9469;51.114;13.914;2023-04-05T16:23:22;99226.97;;;7.58;58.25
18678;BME280;9469;51.114;13.914;2023-04-05T16:28:28;99221.41;;;7.59;58.45
18678;BME280;9469;51.114;13.914;2023-04-05T16:33:35;99224.06;;;7.44;58.29
18678;BME280;9469;51.114;13.914;2023-04-05T16:38:41;99230.91;;;7.70;58.18
18678;BME280;9469;51.114;13.914;2023-04-05T16:43:48;99234.13;;;7.57;58.51
18678;BME280;9469;51.114;13.914;2023-04-05T16:48:58;99230.19;;;7.30;58.80
18678;BME280;9469;51.114;13.914;2023-04-05T16:54:04;99234.41;;;7.51;58.01
18678;BME280;9469;51.114;13.914;2023-04-05T16:59:12;99238.34;;;7.68;58.05
18678;BME280;9469;51.114;13.914;2023-04-05T17:04:20;99222.75;;;7.52;58.76
18678;BME280;9469;51.114;13.914;2023-04-05T17:09:26;99228.56;;;7.64;58.14
18678;BME280;9469;51.114;13.914;2023-04-05T17:14:32;99229.91;;;7.46;58.58
18678;BME280;9469;51.114;13.914;2023-04-05T17:19:40;99227.25;;;7.31;59.14
18678;BME280;9469;51.114;13.914;2023-04-05T17:24:46;99235.66;;;6.63;61.75
18678;BME280;9469;51.114;13.914;2023-04-05T17:29:51;99234.56;;;6.43;62.55
18678;BME280;9469;51.114;13.914;2023-04-05T17:35:00;99235.66;;;6.53;62.97
18678;BME280;9469;51.114;13.914;2023-04-05T17:40:07;99228.81;;;6.62;62.06
18678;BME280;9469;51.114;13.914;2023-04-05T17:45:12;99238.84;;;6.70;62.44
18678;BME280;9469;51.114;13.914;2023-04-05T17:50:21;99238.59;;;6.76;62.45
18678;BME280;9469;51.114;13.914;2023-04-05T17:55:26;99258.66;;;6.57;63.53
18678;BME280;9469;51.114;13.914;2023-04-05T18:00:34;99245.66;;;6.35;66.19
18678;BME280;9469;51.114;13.914;2023-04-05T18:05:42;99264.94;;;6.41;65.31
18678;BME280;9469;51.114;13.914;2023-04-05T18:10:53;99257.75;;;6.21;66.25
18678;BME280;9469;51.114;13.914;2023-04-05T18:15:59;99265.09;;;6.14;67.71
18678;BME280;9469;51.114;13.914;2023-04-05T18:21:09;99267.69;;;5.99;68.62
18678;BME280;9469;51.114;13.914;2023-04-05T18:26:15;99272.78;;;5.79;69.10
18678;BME280;9469;51.114;13.914;2023-04-05T18:31:21;99274.00;;;5.61;70.20
18678;BME280;9469;51.114;13.914;2023-04-05T18:36:29;99278.84;;;5.38;71.45
18678;BME280;9469;51.114;13.914;2023-04-05T18:41:37;99289.25;;;5.49;71.48
18678;BME280;9469;51.114;13.914;2023-04-05T18:46:44;99303.31;;;5.60;72.10
18678;BME280;9469;51.114;13.914;2023-04-05T18:51:53;99308.78;;;5.53;72.12
18678;BME280;9469;51.114;13.914;2023-04-05T18:56:59;99306.38;;;5.52;73.08
18678;BME280;9469;51.114;13.914;2023-04-05T19:02:05;99311.06;;;5.40;74.10
18678;BME280;9469;51.114;13.914;2023-04-05T19:07:14;99314.56;;;5.50;74.92
18678;BME280;9469;51.114;13.914;2023-04-05T19:12:19;99313.91;;;5.65;74.95
18678;BME280;9469;51.114;13.914;2023-04-05T19:17:26;99307.50;;;5.56;75.23
18678;BME280;9469;51.114;13.914;2023-04-05T19:22:35;99307.44;;;5.51;76.26
18678;BME280;9469;51.114;13.914;2023-04-05T19:27:41;99318.06;;;5.24;77.47
18678;BME280;9469;51.114;13.914;2023-04-05T19:32:47;99319.53;;;5.15;78.73
18678;BME280;9469;51.114;13.914;2023-04-05T19:37:56;99325.47;;;4.52;81.05
18678;BME280;9469;51.114;13.914;2023-04-05T19:43:02;99330.19;;;4.98;79.77
18678;BME280;9469;51.114;13.914;2023-04-05T19:48:32;99319.28;;;4.90;79.24
18678;BME280;9469;51.114;13.914;2023-04-05T19:53:54;99326.19;;;4.69;79.80
18678;BME280;9469;51.114;13.914;2023-04-05T19:59:27;99328.84;;;4.48;80.72
18678;BME280;9469;51.114;13.914;2023-04-05T20:04:34;99318.47;;;4.63;84.02
18678;BME280;9469;51.114;13.914;2023-04-05T20:09:43;99317.38;;;4.59;84.00
18678;BME280;9469;51.114;13.914;2023-04-05T20:14:48;99314.28;;;4.67;83.12
18678;BME280;9469;51.114;13.914;2023-04-05T20:19:56;99308.50;;;4.43;83.57
18678;BME280;9469;51.114;13.914;2023-04-05T20:25:35;99312.47;;;3.86;84.90
18678;BME280;9469;51.114;13.914;2023-04-05T20:30:42;99298.31;;;3.92;84.75
18678;BME280;9469;51.114;13.914;2023-04-05T20:35:50;99294.47;;;4.16;84.60
18678;BME280;9469;51.114;13.914;2023-04-05T20:40:58;99295.84;;;4.23;85.43
18678;BME280;9469;51.114;13.914;2023-04-05T20:46:05;99287.28;;;4.11;85.84
18678;BME280;9469;51.114;13.914;2023-04-05T20:51:11;99298.78;;;4.05;86.68
18678;BME280;9469;51.114;13.914;2023-04-05T20:56:19;99299.00;;;3.66;87.25
18678;BME280;9469;51.114;13.914;2023-04-05T21:01:25;99281.63;;;3.64;88.76
18678;BME280;9469;51.114;13.914;2023-04-05T21:11:49;99287.31;;;3.95;88.04
18678;BME280;9469;51.114;13.914;2023-04-05T21:16:55;99286.44;;;3.89;90.03
18678;BME280;9469;51.114;13.914;2023-04-05T21:22:00;99277.38;;;3.80;91.85
18678;BME280;9469;51.114;13.914;2023-04-05T21:27:08;99267.09;;;3.79;92.59
18678;BME280;9469;51.114;13.914;2023-04-05T21:32:14;99268.41;;;3.59;93.06
18678;BME280;9469;51.114;13.914;2023-04-05T21:37:20;99273.50;;;3.49;92.87
18678;BME280;9469;51.114;13.914;2023-04-05T21:42:28;99271.34;;;3.46;92.57
18678;BME280;9469;51.114;13.914;2023-04-05T21:47:34;99265.69;;;3.38;93.15
18678;BME280;9469;51.114;13.914;2023-04-05T21:52:39;99263.41;;;3.41;94.78
18678;BME280;9469;51.114;13.914;2023-04-05T21:57:50;99259.25;;;3.29;95.83
18678;BME280;9469;51.114;13.914;2023-04-05T22:02:56;99259.22;;;3.12;95.44
18678;BME280;9469;51.114;13.914;2023-04-05T22:08:02;99250.41;;;3.18;95.78
18678;BME280;9469;51.114;13.914;2023-04-05T22:13:14;99247.84;;;3.07;95.54
18678;BME280;9469;51.114;13.914;2023-04-05T22:18:20;99243.94;;;2.92;96.57
18678;BME280;9469;51.114;13.914;2023-04-05T22:23:27;99256.50;;;2.90;96.62
18678;BME280;9469;51.114;13.914;2023-04-05T22:28:36;99253.06;;;2.73;96.65
18678;BME280;9469;51.114;13.914;2023-04-05T22:33:42;99248.22;;;2.82;97.64
18678;BME280;9469;51.114;13.914;2023-04-05T22:38:48;99247.50;;;2.86;97.85
18678;BME280;9469;51.114;13.914;2023-04-05T22:43:58;99247.19;;;2.83;98.09
18678;BME280;9469;51.114;13.914;2023-04-05T22:49:04;99240.41;;;2.70;98.42
18678;BME280;9469;51.114;13.914;2023-04-05T22:54:10;99256.66;;;2.56;98.95
18678;BME280;9469;51.114;13.914;2023-04-05T22:59:20;99249.28;;;2.13;98.94
18678;BME280;9469;51.114;13.914;2023-04-05T23:04:26;99245.03;;;2.52;96.65
18678;BME280;9469;51.114;13.914;2023-04-05T23:09:34;99255.22;;;2.08;97.46
18678;BME280;9469;51.114;13.914;2023-04-05T23:14:43;99256.78;;;2.33;98.30
18678;BME280;9469;51.114;13.914;2023-04-05T23:19:49;99251.91;;;2.13;99.29
18678;BME280;9469;51.114;13.914;2023-04-05T23:24:55;99250.19;;;2.18;100.00
18678;BME280;9469;51.114;13.914;2023-04-05T23:30:07;99239.16;;;2.05;100.00
18678;BME280;9469;51.114;13.914;2023-04-05T23:35:13;99244.16;;;2.06;100.00
18678;BME280;9469;51.114;13.914;2023-04-05T23:40:19;99246.50;;;1.80;100.00
18678;BME280;9469;51.114;13.914;2023-04-05T23:45:29;99233.81;;;1.88;100.00
18678;BME280;9469;51.114;13.914;2023-04-05T23:50:37;99237.81;;;1.68;100.00
18678;BME280;9469;51.114;13.914;2023-04-05T23:55:42;99230.66;;;1.63;100.00
